createdAt,value
2023-04-09T00:00:45.133Z,5.40
2023-04-09T00:03:12.212Z,5.40
2023-04-09T00:05:40.710Z,5.40
2023-04-09T00:08:08.774Z,5.40
2023-04-09T00:10:36.064Z,5.40
2023-04-09T00:13:02.964Z,5.40
2023-04-09T00:15:31.634Z,5.40
2023-04-09T00:18:01.716Z,5.40
2023-04-09T00:20:28.676Z,5.40
2023-04-09T00:22:56.537Z,5.40
2023-04-09T00:25:23.557Z,5.40
2023-04-09T00:27:50.682Z,5.30
2023-04-09T00:30:18.042Z,5.30
2023-04-09T00:32:48.361Z,5.20
2023-04-09T00:35:16.422Z,5.10
2023-04-09T00:37:43.812Z,5.00
2023-04-09T00:40:14.040Z,5.00
2023-04-09T00:42:41.790Z,4.90
2023-04-09T00:45:09.519Z,4.90
2023-04-09T00:47:38.909Z,4.80
2023-04-09T00:50:06.596Z,4.80
2023-04-09T00:52:33.571Z,4.80
2023-04-09T00:55:04.205Z,4.80
2023-04-09T00:57:31.484Z,4.80
2023-04-09T00:59:58.765Z,4.80
2023-04-09T01:02:26.688Z,4.80
2023-04-09T01:04:53.973Z,4.70
2023-04-09T01:07:26.857Z,4.80
2023-04-09T01:10:26.878Z,4.90
2023-04-09T01:13:18.552Z,4.80
2023-04-09T01:16:04.426Z,4.90
2023-04-09T01:19:11.124Z,4.90
2023-04-09T01:21:40.815Z,4.90
2023-04-09T01:24:56.061Z,4.90
2023-04-09T01:27:23.564Z,5.00
2023-04-09T01:29:53.045Z,4.90
2023-04-09T01:32:22.860Z,4.90
2023-04-09T01:34:51.234Z,4.90
2023-04-09T01:37:19.701Z,4.80
2023-04-09T01:39:47.360Z,4.80
2023-04-09T01:42:17.063Z,4.80
2023-04-09T01:44:46.555Z,4.80
2023-04-09T01:47:13.859Z,4.80
2023-04-09T01:49:42.617Z,4.70
2023-04-09T01:52:10.476Z,4.80
2023-04-09T01:54:37.502Z,4.70
2023-04-09T01:57:04.468Z,4.70
2023-04-09T01:59:31.383Z,4.70
2023-04-09T02:02:06.417Z,4.60
2023-04-09T02:04:41.276Z,4.60
2023-04-09T02:07:32.228Z,4.60
2023-04-09T02:10:01.115Z,4.50
2023-04-09T02:12:40.715Z,4.50
2023-04-09T02:15:08.669Z,4.50
2023-04-09T02:17:35.794Z,4.50
2023-04-09T02:20:03.165Z,4.50
2023-04-09T02:22:30.592Z,4.40
2023-04-09T02:24:57.577Z,4.30
2023-04-09T02:27:24.726Z,4.30
2023-04-09T02:29:52.150Z,4.30
2023-04-09T02:32:19.490Z,4.20
2023-04-09T02:34:46.633Z,4.20
2023-04-09T02:37:13.903Z,4.20
2023-04-09T02:39:40.863Z,4.10
2023-04-09T02:42:08.143Z,4.10
2023-04-09T02:44:35.175Z,4.10
2023-04-09T02:47:02.086Z,4.10
2023-04-09T02:49:29.097Z,4.00
2023-04-09T02:51:56.027Z,4.00
2023-04-09T02:54:22.971Z,3.90
2023-04-09T02:56:49.981Z,3.90
2023-04-09T02:59:16.857Z,3.90
2023-04-09T03:01:43.874Z,3.80
2023-04-09T03:04:11.002Z,3.80
2023-04-09T03:06:38.013Z,3.80
2023-04-09T03:09:04.940Z,3.80
2023-04-09T03:11:32.121Z,3.80
2023-04-09T03:14:00.053Z,3.70
2023-04-09T03:16:27.061Z,3.70
2023-04-09T03:18:54.420Z,3.70
2023-04-09T03:21:21.474Z,3.70
2023-04-09T03:23:48.372Z,3.60
2023-04-09T03:26:15.661Z,3.60
2023-04-09T03:28:42.579Z,3.60
2023-04-09T03:31:09.836Z,3.50
2023-04-09T03:33:36.750Z,3.50
2023-04-09T03:36:03.917Z,3.50
2023-04-09T03:38:30.941Z,3.50
2023-04-09T03:40:57.864Z,3.50
2023-04-09T03:43:24.827Z,3.50
2023-04-09T03:45:51.822Z,3.50
2023-04-09T03:48:18.682Z,3.50
2023-04-09T03:50:45.627Z,3.40
2023-04-09T03:53:12.557Z,3.40
2023-04-09T03:55:39.883Z,3.40
2023-04-09T03:58:07.154Z,3.30
2023-04-09T04:00:34.082Z,3.30
2023-04-09T04:03:01.235Z,3.30
2023-04-09T04:05:28.471Z,3.30
2023-04-09T04:07:55.526Z,3.20
2023-04-09T04:10:23.044Z,3.20
2023-04-09T04:12:50.008Z,3.10
2023-04-09T04:15:16.989Z,3.10
2023-04-09T04:17:43.956Z,3.10
2023-04-09T04:20:11.711Z,3.10
2023-04-09T04:22:39.600Z,3.10
2023-04-09T04:25:06.990Z,3.00
2023-04-09T04:27:33.869Z,3.10
2023-04-09T04:30:02.280Z,3.00
2023-04-09T04:32:30.507Z,3.00
2023-04-09T04:34:57.420Z,3.00
2023-04-09T04:37:24.341Z,3.00
2023-04-09T04:39:51.266Z,3.00
2023-04-09T04:42:18.219Z,3.00
2023-04-09T04:44:45.528Z,3.00
2023-04-09T04:47:12.621Z,3.00
2023-04-09T04:49:39.540Z,2.90
2023-04-09T04:52:07.635Z,2.90
2023-04-09T04:54:34.595Z,2.90
2023-04-09T04:57:01.719Z,2.90
2023-04-09T04:59:28.978Z,2.90
2023-04-09T05:01:56.089Z,2.90
2023-04-09T05:04:23.245Z,2.90
2023-04-09T05:06:50.293Z,3.00
2023-04-09T05:09:17.245Z,3.00
2023-04-09T05:11:44.106Z,3.10
2023-04-09T05:14:10.997Z,3.10
2023-04-09T05:16:37.916Z,3.10
2023-04-09T05:19:04.927Z,3.20
2023-04-09T05:21:32.514Z,3.40
2023-04-09T05:23:59.391Z,3.50
2023-04-09T05:26:27.254Z,3.60
2023-04-09T05:28:54.341Z,3.70
2023-04-09T05:31:21.624Z,3.90
2023-04-09T05:33:48.698Z,4.00
2023-04-09T05:36:19.318Z,4.10
2023-04-09T05:38:49.372Z,4.10
2023-04-09T05:41:16.479Z,4.20
2023-04-09T05:43:43.505Z,4.30
2023-04-09T05:46:10.731Z,4.50
2023-04-09T05:48:37.827Z,4.60
2023-04-09T05:51:04.787Z,4.80
2023-04-09T05:53:32.125Z,4.90
2023-04-09T05:55:59.127Z,5.00
2023-04-09T05:58:26.289Z,5.30
2023-04-09T06:00:53.255Z,5.30
2023-04-09T06:03:20.798Z,5.40
2023-04-09T06:05:48.478Z,5.60
2023-04-09T06:08:15.523Z,5.90
2023-04-09T06:10:42.536Z,6.20
2023-04-09T06:13:10.516Z,6.60
2023-04-09T06:15:39.254Z,6.70
2023-04-09T06:18:06.554Z,7.00
2023-04-09T06:20:33.772Z,7.20
2023-04-09T06:23:00.938Z,7.20
2023-04-09T06:25:27.880Z,7.20
2023-04-09T06:27:54.825Z,7.00
2023-04-09T06:30:23.090Z,7.10
2023-04-09T06:32:54.941Z,7.30
2023-04-09T06:35:22.979Z,7.30
2023-04-09T06:37:49.963Z,7.40
2023-04-09T06:40:16.973Z,7.60
2023-04-09T06:42:43.981Z,7.70
2023-04-09T06:45:11.134Z,7.60
2023-04-09T06:47:38.075Z,7.50
2023-04-09T06:50:05.788Z,7.60
2023-04-09T06:52:32.733Z,7.70
2023-04-09T06:55:00.976Z,8.10
2023-04-09T06:57:28.022Z,8.60
2023-04-09T06:59:54.995Z,9.00
2023-04-09T07:02:22.343Z,9.20
2023-04-09T07:04:49.547Z,9.10
2023-04-09T07:07:17.266Z,9.20
2023-04-09T07:09:45.165Z,9.40
2023-04-09T07:12:12.842Z,9.70
2023-04-09T07:14:39.792Z,9.90
2023-04-09T07:17:06.928Z,10.20
2023-04-09T07:19:33.990Z,10.50
2023-04-09T07:22:01.822Z,10.80
2023-04-09T07:24:28.853Z,11.30
2023-04-09T07:26:56.439Z,11.60
2023-04-09T07:29:23.377Z,11.80
2023-04-09T07:31:50.383Z,12.10
2023-04-09T07:34:17.448Z,12.00
2023-04-09T07:36:44.437Z,12.00
2023-04-09T07:39:11.370Z,12.50
2023-04-09T07:41:38.277Z,13.20
2023-04-09T07:44:06.501Z,13.50
2023-04-09T07:46:33.606Z,13.70
2023-04-09T07:49:00.833Z,13.80
2023-04-09T07:51:28.885Z,14.20
2023-04-09T07:53:55.829Z,14.30
2023-04-09T07:56:22.941Z,14.70
2023-04-09T07:58:50.921Z,15.00
2023-04-09T08:01:18.036Z,15.60
2023-04-09T08:03:45.696Z,16.20
2023-04-09T08:06:12.893Z,16.00
2023-04-09T08:08:39.833Z,15.90
2023-04-09T08:11:07.158Z,16.40
2023-04-09T08:13:34.595Z,16.20
2023-04-09T08:16:02.418Z,16.30
2023-04-09T08:18:29.670Z,16.40
2023-04-09T08:20:57.430Z,16.60
2023-04-09T08:23:24.526Z,16.80
2023-04-09T08:25:51.424Z,16.80
2023-04-09T08:28:18.429Z,17.50
2023-04-09T08:30:47.857Z,17.90
2023-04-09T08:33:15.600Z,17.40
2023-04-09T08:35:42.705Z,16.90
2023-04-09T08:38:09.692Z,16.80
2023-04-09T08:40:37.398Z,17.00
2023-04-09T08:43:09.649Z,17.50
2023-04-09T08:45:36.806Z,17.80
2023-04-09T08:48:05.164Z,18.30
2023-04-09T08:50:34.197Z,18.30
2023-04-09T08:53:04.708Z,17.40
2023-04-09T08:55:31.833Z,17.40
2023-04-09T08:57:58.875Z,18.10
2023-04-09T09:00:26.261Z,17.70
2023-04-09T09:03:10.967Z,17.30
2023-04-09T09:05:43.187Z,17.70
2023-04-09T09:08:23.248Z,18.10
2023-04-09T09:10:50.524Z,18.10
2023-04-09T09:13:27.930Z,18.00
2023-04-09T09:16:14.493Z,17.90
2023-04-09T09:18:45.166Z,18.60
2023-04-09T09:21:16.689Z,18.90
2023-04-09T09:23:45.740Z,18.00
2023-04-09T09:26:24.643Z,16.60
2023-04-09T09:28:52.365Z,17.00
2023-04-09T09:31:23.894Z,18.00
2023-04-09T09:33:54.869Z,18.10
2023-04-09T09:36:35.663Z,18.20
2023-04-09T09:39:05.375Z,18.70
2023-04-09T09:41:32.355Z,17.90
2023-04-09T09:43:59.283Z,16.70
2023-04-09T09:46:27.913Z,16.50
2023-04-09T09:48:55.157Z,17.10
2023-04-09T09:51:27.829Z,17.80
2023-04-09T09:53:57.678Z,18.10
2023-04-09T09:56:32.628Z,17.60
2023-04-09T09:59:23.544Z,17.90
2023-04-09T10:02:07.965Z,18.80
2023-04-09T10:04:38.646Z,17.50
2023-04-09T10:07:07.504Z,16.00
2023-04-09T10:09:37.890Z,15.70
2023-04-09T10:12:07.711Z,15.80
2023-04-09T10:14:36.141Z,16.80
2023-04-09T10:17:04.472Z,16.70
2023-04-09T10:19:35.747Z,16.50
2023-04-09T10:22:11.712Z,16.80
2023-04-09T10:24:39.689Z,16.60
2023-04-09T10:27:16.761Z,16.00
2023-04-09T10:29:49.580Z,15.40
2023-04-09T10:32:21.311Z,15.40
2023-04-09T10:34:49.334Z,15.60
2023-04-09T10:37:21.986Z,16.40
2023-04-09T10:39:51.018Z,16.70
2023-04-09T10:42:41.131Z,16.60
2023-04-09T10:45:14.427Z,16.10
2023-04-09T10:47:43.371Z,15.30
2023-04-09T10:50:22.196Z,15.60
2023-04-09T10:52:57.542Z,16.40
2023-04-09T10:55:41.425Z,17.40
2023-04-09T10:58:13.462Z,18.00
2023-04-09T11:00:42.467Z,16.90
2023-04-09T11:03:25.054Z,16.20
2023-04-09T11:06:02.995Z,16.50
2023-04-09T11:08:32.276Z,16.50
2023-04-09T11:11:01.807Z,16.90
2023-04-09T11:13:31.190Z,17.30
2023-04-09T11:15:58.886Z,17.20
2023-04-09T11:18:28.546Z,17.50
2023-04-09T11:21:00.994Z,17.80
2023-04-09T11:23:28.622Z,17.40
2023-04-09T11:25:56.595Z,16.40
2023-04-09T11:28:24.585Z,15.80
2023-04-09T11:30:52.333Z,15.50
2023-04-09T11:33:20.392Z,15.40
2023-04-09T11:35:48.217Z,15.70
2023-04-09T11:38:15.434Z,15.80
2023-04-09T11:40:51.513Z,15.70
2023-04-09T11:43:18.956Z,16.20
2023-04-09T11:45:49.123Z,16.60
2023-04-09T11:48:18.666Z,16.50
2023-04-09T11:50:47.510Z,16.70
2023-04-09T11:53:22.536Z,16.70
2023-04-09T11:55:53.371Z,16.50
2023-04-09T11:58:25.734Z,16.60
2023-04-09T12:00:58.011Z,16.80
2023-04-09T12:03:33.168Z,16.70
2023-04-09T12:06:02.160Z,16.30
2023-04-09T12:08:29.569Z,16.00
2023-04-09T12:10:56.513Z,15.50
2023-04-09T12:13:33.645Z,15.40
2023-04-09T12:16:02.974Z,15.10
2023-04-09T12:18:30.132Z,14.60
2023-04-09T12:20:57.197Z,14.20
2023-04-09T12:23:24.211Z,14.20
2023-04-09T12:25:51.217Z,14.30
2023-04-09T12:28:18.894Z,14.40
2023-04-09T12:30:47.544Z,14.20
2023-04-09T12:33:17.400Z,14.30
2023-04-09T12:35:44.610Z,14.20
2023-04-09T12:38:11.743Z,14.40
2023-04-09T12:40:39.418Z,14.40
2023-04-09T12:43:06.382Z,14.70
2023-04-09T12:45:33.985Z,15.10
2023-04-09T12:48:01.033Z,15.40
2023-04-09T12:50:28.503Z,15.10
2023-04-09T12:52:55.679Z,14.80
2023-04-09T12:55:22.693Z,15.00
2023-04-09T12:57:51.440Z,15.10
2023-04-09T13:00:18.751Z,15.20
2023-04-09T13:02:45.838Z,15.20
2023-04-09T13:05:13.909Z,15.40
2023-04-09T13:07:42.854Z,15.60
2023-04-09T13:10:10.544Z,15.70
2023-04-09T13:12:40.048Z,15.70
2023-04-09T13:15:13.960Z,15.70
2023-04-09T13:17:41.017Z,15.70
2023-04-09T13:20:08.876Z,15.60
2023-04-09T13:22:36.314Z,15.70
2023-04-09T13:25:04.511Z,15.70
2023-04-09T13:27:31.666Z,15.80
2023-04-09T13:29:58.583Z,16.00
2023-04-09T13:32:25.706Z,15.80
2023-04-09T13:34:54.713Z,15.80
2023-04-09T13:37:21.752Z,15.80
2023-04-09T13:39:50.596Z,15.90
2023-04-09T13:42:17.939Z,15.90
2023-04-09T13:44:45.800Z,15.90
2023-04-09T13:47:17.872Z,16.10
2023-04-09T13:49:45.280Z,16.10
2023-04-09T13:52:15.580Z,16.00
2023-04-09T13:54:42.872Z,16.20
2023-04-09T13:57:10.718Z,16.30
2023-04-09T13:59:38.938Z,16.20
2023-04-09T14:02:08.657Z,16.10
2023-04-09T14:04:36.223Z,15.60
2023-04-09T14:07:03.408Z,15.40
2023-04-09T14:09:30.739Z,15.50
2023-04-09T14:11:57.868Z,15.40
2023-04-09T14:14:24.977Z,15.30
2023-04-09T14:16:52.276Z,15.60
2023-04-09T14:19:19.318Z,15.90
2023-04-09T14:21:47.137Z,16.10
2023-04-09T14:24:14.151Z,16.20
2023-04-09T14:26:41.345Z,15.70
2023-04-09T14:29:09.346Z,15.30
2023-04-09T14:31:43.273Z,15.00
2023-04-09T14:34:11.080Z,15.00
2023-04-09T14:36:39.797Z,14.90
2023-04-09T14:39:06.758Z,15.00
2023-04-09T14:41:34.641Z,14.80
2023-04-09T14:44:01.906Z,14.90
2023-04-09T14:46:28.999Z,15.10
2023-04-09T14:48:55.937Z,15.00
2023-04-09T14:51:22.999Z,14.90
2023-04-09T14:53:49.915Z,14.90
2023-04-09T14:56:17.144Z,14.80
2023-04-09T14:58:44.202Z,14.70
2023-04-09T15:01:11.187Z,14.90
2023-04-09T15:03:38.481Z,14.70
2023-04-09T15:06:05.801Z,14.70
2023-04-09T15:08:32.859Z,14.60
2023-04-09T15:10:59.806Z,14.70
2023-04-09T15:13:26.791Z,14.70
2023-04-09T15:15:54.119Z,14.60
2023-04-09T15:18:21.873Z,14.50
2023-04-09T15:20:49.229Z,14.40
2023-04-09T15:23:16.386Z,14.20
2023-04-09T15:25:43.389Z,14.10
2023-04-09T15:28:11.037Z,14.10
2023-04-09T15:30:41.205Z,14.00
2023-04-09T15:33:08.823Z,13.90
2023-04-09T15:35:36.315Z,13.80
2023-04-09T15:38:03.349Z,13.80
2023-04-09T15:40:31.256Z,13.80
2023-04-09T15:42:58.241Z,13.80
2023-04-09T15:45:26.214Z,13.70
2023-04-09T15:47:53.245Z,13.70
2023-04-09T15:50:20.343Z,13.70
2023-04-09T15:52:47.467Z,13.70
2023-04-09T15:55:14.442Z,13.60
2023-04-09T15:57:41.510Z,13.60
2023-04-09T16:00:10.294Z,13.60
2023-04-09T16:02:39.329Z,13.60
2023-04-09T16:05:09.614Z,13.60
2023-04-09T16:07:37.034Z,13.70
2023-04-09T16:10:04.818Z,13.60
2023-04-09T16:12:31.824Z,13.60
2023-04-09T16:14:59.184Z,13.60
2023-04-09T16:17:26.469Z,13.50
2023-04-09T16:19:53.426Z,13.50
2023-04-09T16:22:20.342Z,13.50
2023-04-09T16:24:47.582Z,13.50
2023-04-09T16:27:15.752Z,13.40
2023-04-09T16:29:43.404Z,13.40
2023-04-09T16:32:13.587Z,13.30
2023-04-09T16:34:41.219Z,13.30
2023-04-09T16:37:09.541Z,13.30
2023-04-09T16:39:36.563Z,13.30
2023-04-09T16:42:03.657Z,13.30
2023-04-09T16:44:30.972Z,13.30
2023-04-09T16:47:02.738Z,13.20
2023-04-09T16:49:32.925Z,13.20
2023-04-09T16:51:59.968Z,13.20
2023-04-09T16:54:26.974Z,13.20
2023-04-09T16:56:54.012Z,13.20
2023-04-09T16:59:21.247Z,13.20
2023-04-09T17:01:49.226Z,13.20
2023-04-09T17:04:16.422Z,13.20
2023-04-09T17:06:43.653Z,13.10
2023-04-09T17:09:10.625Z,13.00
2023-04-09T17:11:38.267Z,13.00
2023-04-09T17:14:05.930Z,12.90
2023-04-09T17:16:33.441Z,12.90
2023-04-09T17:19:00.917Z,12.80
2023-04-09T17:21:28.004Z,12.80
2023-04-09T17:23:54.998Z,12.80
2023-04-09T17:26:22.015Z,12.70
2023-04-09T17:28:48.905Z,12.70
2023-04-09T17:31:16.306Z,12.70
2023-04-09T17:33:48.124Z,12.60
2023-04-09T17:36:17.565Z,12.60
2023-04-09T17:38:45.180Z,12.50
2023-04-09T17:41:12.161Z,12.50
2023-04-09T17:43:39.263Z,12.40
2023-04-09T17:46:11.874Z,12.40
2023-04-09T17:48:39.010Z,12.30
2023-04-09T17:51:07.925Z,12.30
2023-04-09T17:53:35.780Z,12.20
2023-04-09T17:56:05.669Z,12.20
2023-04-09T17:58:33.903Z,12.10
2023-04-09T18:01:00.865Z,12.00
2023-04-09T18:03:28.048Z,11.80
2023-04-09T18:05:55.213Z,11.80
2023-04-09T18:08:22.293Z,11.70
2023-04-09T18:11:08.954Z,11.70
2023-04-09T18:13:39.182Z,11.70
2023-04-09T18:16:10.681Z,11.60
2023-04-09T18:18:40.035Z,11.50
2023-04-09T18:21:07.271Z,11.40
2023-04-09T18:23:34.196Z,11.50
2023-04-09T18:26:16.585Z,11.40
2023-04-09T18:28:43.497Z,11.30
2023-04-09T18:31:12.156Z,11.30
2023-04-09T18:33:40.358Z,11.10
2023-04-09T18:36:07.645Z,11.10
2023-04-09T18:38:35.060Z,11.00
2023-04-09T18:41:01.969Z,11.00
2023-04-09T18:43:28.899Z,10.90
2023-04-09T18:45:57.130Z,10.90
2023-04-09T18:48:24.810Z,10.80
2023-04-09T18:50:52.236Z,10.80
2023-04-09T18:53:19.214Z,10.70
2023-04-09T18:55:46.513Z,10.60
2023-04-09T18:58:15.097Z,10.60
2023-04-09T19:00:43.578Z,10.50
2023-04-09T19:03:11.164Z,10.50
2023-04-09T19:05:38.854Z,10.40
2023-04-09T19:08:07.015Z,10.30
2023-04-09T19:10:33.946Z,10.20
2023-04-09T19:13:00.842Z,10.10
2023-04-09T19:15:29.365Z,10.00
2023-04-09T19:17:57.171Z,9.90
2023-04-09T19:20:24.280Z,9.80
2023-04-09T19:22:54.443Z,9.80
2023-04-09T19:25:22.945Z,9.70
2023-04-09T19:27:49.954Z,9.80
2023-04-09T19:30:17.107Z,9.80
2023-04-09T19:32:45.813Z,9.70
2023-04-09T19:35:12.994Z,9.70
2023-04-09T19:37:39.999Z,9.60
2023-04-09T19:40:45.360Z,9.50
2023-04-09T19:43:12.386Z,9.30
2023-04-09T19:45:39.952Z,9.30
2023-04-09T19:48:07.457Z,9.40
2023-04-09T19:50:38.581Z,9.40
2023-04-09T19:53:06.245Z,9.40
2023-04-09T19:55:34.219Z,9.40
2023-04-09T19:58:01.569Z,9.30
2023-04-09T20:00:29.022Z,9.20
2023-04-09T20:02:57.194Z,9.10
2023-04-09T20:05:24.476Z,9.00
2023-04-09T20:07:52.904Z,9.00
2023-04-09T20:10:20.227Z,8.90
2023-04-09T20:12:48.599Z,8.90
2023-04-09T20:15:17.592Z,8.80
2023-04-09T20:17:46.325Z,8.80
2023-04-09T20:20:13.412Z,8.80
2023-04-09T20:22:43.313Z,8.80
2023-04-09T20:25:13.895Z,8.80
2023-04-09T20:27:41.142Z,8.80
2023-04-09T20:30:09.053Z,8.80
2023-04-09T20:32:37.792Z,8.80
2023-04-09T20:35:09.172Z,8.80
2023-04-09T20:37:36.195Z,8.80
2023-04-09T20:40:03.635Z,8.60
2023-04-09T20:42:30.940Z,8.50
2023-04-09T20:48:48.496Z,8.50
2023-04-09T20:51:15.840Z,8.40
2023-04-09T20:53:42.963Z,8.40
2023-04-09T20:56:10.005Z,8.40
2023-04-09T20:58:36.996Z,8.40
2023-04-09T21:01:09.926Z,8.30
2023-04-09T21:03:39.177Z,8.20
2023-04-09T21:06:07.067Z,8.20
2023-04-09T21:08:34.696Z,8.20
2023-04-09T21:11:02.253Z,8.20
2023-04-09T21:13:30.050Z,8.10
2023-04-09T21:15:58.261Z,8.20
2023-04-09T21:18:25.473Z,8.20
2023-04-09T21:20:52.419Z,8.10
2023-04-09T21:23:19.537Z,8.00
2023-04-09T21:25:46.479Z,8.00
2023-04-09T21:28:13.484Z,8.00
2023-04-09T21:30:40.668Z,7.90
2023-04-09T21:33:09.230Z,7.90
2023-04-09T21:35:36.853Z,7.80
2023-04-09T21:38:04.096Z,7.80
2023-04-09T21:40:31.512Z,7.60
2023-04-09T21:42:58.568Z,7.50
2023-04-09T21:45:25.600Z,7.40
2023-04-09T21:47:52.753Z,7.40
2023-04-09T21:50:19.978Z,7.40
2023-04-09T21:52:47.408Z,7.40
2023-04-09T21:55:14.401Z,7.50
2023-04-09T21:57:41.482Z,7.50
2023-04-09T22:00:10.981Z,7.50
2023-04-09T22:02:39.357Z,7.40
2023-04-09T22:05:06.705Z,7.40
2023-04-09T22:07:33.784Z,7.40
2023-04-09T22:10:01.000Z,7.30
2023-04-09T22:12:27.881Z,7.30
2023-04-09T22:14:55.583Z,7.20
2023-04-09T22:17:22.689Z,7.10
2023-04-09T22:19:51.162Z,7.10
2023-04-09T22:22:18.147Z,7.00
2023-04-09T22:24:45.153Z,6.90
2023-04-09T22:27:13.100Z,6.90
2023-04-09T22:29:40.116Z,6.90
2023-04-09T22:32:07.360Z,6.80
2023-04-09T22:34:34.279Z,6.80
2023-04-09T22:37:02.163Z,6.70
2023-04-09T22:39:29.498Z,6.60
2023-04-09T22:41:56.586Z,6.50
2023-04-09T22:44:23.513Z,6.50
2023-04-09T22:46:50.942Z,6.40
2023-04-09T22:49:17.948Z,6.40
2023-04-09T22:51:44.855Z,6.30
2023-04-09T22:54:11.949Z,6.30
2023-04-09T22:56:39.785Z,6.40
2023-04-09T22:59:07.370Z,6.40
2023-04-09T23:01:34.410Z,6.30
2023-04-09T23:04:01.623Z,6.30
2023-04-09T23:06:29.012Z,6.20
2023-04-09T23:08:55.973Z,6.20
2023-04-09T23:11:23.081Z,6.10
2023-04-09T23:13:50.110Z,6.00
2023-04-09T23:16:17.157Z,6.00
2023-04-09T23:18:44.400Z,5.90
2023-04-09T23:21:11.718Z,5.90
2023-04-09T23:23:39.531Z,5.80
2023-04-09T23:26:06.985Z,5.80
2023-04-09T23:28:33.918Z,5.70
2023-04-09T23:31:01.392Z,5.60
2023-04-09T23:33:28.379Z,5.50
2023-04-09T23:35:55.573Z,5.50
2023-04-09T23:38:22.697Z,5.50
2023-04-09T23:40:50.095Z,5.50
2023-04-09T23:43:17.067Z,5.50
2023-04-09T23:45:44.525Z,5.50
2023-04-09T23:48:12.751Z,5.50
2023-04-09T23:50:41.264Z,5.40
2023-04-09T23:53:08.913Z,5.30
2023-04-09T23:55:40.825Z,5.30
2023-04-09T23:58:09.614Z,5.30
